createdAt,value
2022-08-01T00:00:15.039Z,20.59
2022-08-01T00:01:15.027Z,20.62
2022-08-01T00:02:15.084Z,20.59
2022-08-01T00:03:14.995Z,20.60
2022-08-01T00:04:15.012Z,20.66
2022-08-01T00:05:14.962Z,20.67
2022-08-01T00:06:14.951Z,20.67
2022-08-01T00:07:14.933Z,20.67
2022-08-01T00:08:14.933Z,20.66
2022-08-01T00:09:23.740Z,20.66
2022-08-01T00:10:15.930Z,20.67
2022-08-01T00:11:14.904Z,20.66
2022-08-01T00:12:14.880Z,20.63
2022-08-01T00:13:14.865Z,20.65
2022-08-01T00:14:14.894Z,20.65
2022-08-01T00:15:14.866Z,20.66
2022-08-01T00:16:14.832Z,20.66
2022-08-01T00:17:14.817Z,20.66
2022-08-01T00:18:14.815Z,20.69
2022-08-01T00:19:14.829Z,20.70
2022-08-01T00:20:14.798Z,20.72
2022-08-01T00:21:14.774Z,20.69
2022-08-01T00:22:14.796Z,20.69
2022-08-01T00:23:14.757Z,20.65
2022-08-01T00:24:15.703Z,20.62
2022-08-01T00:25:14.730Z,20.60
2022-08-01T00:26:14.722Z,20.62
2022-08-01T00:27:14.702Z,20.63
2022-08-01T00:28:14.699Z,20.62
2022-08-01T00:30:10.212Z,20.58
2022-08-01T00:30:15.692Z,20.55
2022-08-01T00:31:14.660Z,20.52
2022-08-01T00:32:14.652Z,20.50
2022-08-01T00:33:14.626Z,20.55
2022-08-01T00:34:14.660Z,20.55
2022-08-01T00:35:14.605Z,20.55
2022-08-01T00:36:14.604Z,20.55
2022-08-01T00:37:16.152Z,20.50
2022-08-01T00:38:14.574Z,20.44
2022-08-01T00:39:14.591Z,20.41
2022-08-01T00:40:14.556Z,20.34
2022-08-01T00:41:14.537Z,20.26
2022-08-01T00:42:14.535Z,20.24
2022-08-01T00:43:14.524Z,20.22
2022-08-01T00:44:14.547Z,20.22
2022-08-01T00:45:14.497Z,20.21
2022-08-01T00:46:14.491Z,20.25
2022-08-01T00:47:14.488Z,20.25
2022-08-01T00:48:14.467Z,20.22
2022-08-01T00:49:14.543Z,20.28
2022-08-01T00:50:14.584Z,20.22
2022-08-01T00:51:14.429Z,20.21
2022-08-01T00:52:15.834Z,20.14
2022-08-01T00:53:19.008Z,20.13
2022-08-01T00:54:16.711Z,20.11
2022-08-01T00:55:14.879Z,20.16
2022-08-01T00:56:14.373Z,20.26
2022-08-01T00:57:15.033Z,20.28
2022-08-01T00:58:14.511Z,20.32
2022-08-01T00:59:14.879Z,20.37
2022-08-01T01:00:14.393Z,20.40
2022-08-01T01:01:14.523Z,20.39
2022-08-01T01:02:15.010Z,20.39
2022-08-01T01:03:14.306Z,20.34
2022-08-01T01:04:14.401Z,20.34
2022-08-01T01:05:14.313Z,20.31
2022-08-01T01:06:14.265Z,20.28
2022-08-01T01:07:14.259Z,20.26
2022-08-01T01:08:14.282Z,20.25
2022-08-01T01:09:14.352Z,20.28
2022-08-01T01:10:14.259Z,20.22
2022-08-01T01:11:14.327Z,20.19
2022-08-01T01:12:14.323Z,20.11
2022-08-01T01:13:14.202Z,20.07
2022-08-01T01:14:14.195Z,20.07
2022-08-01T01:15:14.207Z,20.09
2022-08-01T01:16:14.167Z,20.11
2022-08-01T01:17:14.151Z,20.09
2022-08-01T01:18:14.241Z,20.09
2022-08-01T01:19:14.126Z,20.09
2022-08-01T01:20:14.158Z,20.09
2022-08-01T01:21:14.212Z,20.10
2022-08-01T01:22:14.098Z,20.16
2022-08-01T01:23:14.169Z,20.14
2022-08-01T01:24:14.079Z,20.11
2022-08-01T01:25:14.184Z,20.04
2022-08-01T01:26:14.072Z,20.00
2022-08-01T01:27:14.035Z,19.92
2022-08-01T01:28:14.140Z,19.85
2022-08-01T01:29:14.009Z,19.85
2022-08-01T01:30:14.042Z,19.88
2022-08-01T01:31:14.003Z,19.91
2022-08-01T01:32:14.109Z,19.89
2022-08-01T01:33:13.972Z,19.89
2022-08-01T01:34:13.965Z,19.89
2022-08-01T01:35:13.985Z,19.86
2022-08-01T01:36:13.945Z,19.88
2022-08-01T01:37:14.037Z,19.85
2022-08-01T01:38:13.933Z,19.82
2022-08-01T01:39:13.898Z,19.79
2022-08-01T01:40:13.934Z,19.79
2022-08-01T01:41:14.009Z,19.73
2022-08-01T01:42:13.974Z,19.67
2022-08-01T01:43:14.814Z,19.62
2022-08-01T01:44:13.865Z,19.63
2022-08-01T01:45:13.850Z,19.62
2022-08-01T01:46:13.864Z,19.58
2022-08-01T01:47:13.917Z,19.56
2022-08-01T01:48:13.835Z,19.52
2022-08-01T01:49:13.833Z,19.51
2022-08-01T01:50:13.795Z,19.48
2022-08-01T01:51:13.812Z,19.48
2022-08-01T01:52:13.765Z,19.49
2022-08-01T01:53:14.965Z,19.47
2022-08-01T01:54:13.761Z,19.47
2022-08-01T01:55:13.784Z,19.48
2022-08-01T01:56:13.766Z,19.47
2022-08-01T01:57:13.734Z,19.45
2022-08-01T01:58:13.725Z,19.45
2022-08-01T01:59:13.691Z,19.40
2022-08-01T02:00:13.709Z,19.37
2022-08-01T02:01:14.783Z,19.34
2022-08-01T02:02:14.008Z,19.31
2022-08-01T02:03:13.645Z,19.27
2022-08-01T02:04:13.653Z,19.24
2022-08-01T02:05:13.648Z,19.21
2022-08-01T02:06:13.668Z,19.21
2022-08-01T02:07:13.620Z,19.22
2022-08-01T02:08:13.597Z,19.19
2022-08-01T02:09:13.578Z,19.24
2022-08-01T02:10:13.569Z,19.30
2022-08-01T02:11:13.591Z,19.29
2022-08-01T02:12:14.089Z,19.31
2022-08-01T02:13:13.535Z,19.34
2022-08-01T02:14:13.534Z,19.44
2022-08-01T02:15:13.507Z,19.52
2022-08-01T02:16:13.539Z,19.63
2022-08-01T02:17:13.494Z,19.69
2022-08-01T02:18:13.485Z,19.71
2022-08-01T02:19:13.464Z,19.70
2022-08-01T02:20:13.455Z,19.73
2022-08-01T02:21:13.480Z,19.73
2022-08-01T02:22:13.450Z,19.73
2022-08-01T02:23:13.442Z,19.76
2022-08-01T02:24:13.421Z,19.81
2022-08-01T02:25:13.407Z,19.81
2022-08-01T02:26:13.435Z,19.81
2022-08-01T02:27:13.387Z,19.81
2022-08-01T02:28:13.381Z,19.81
2022-08-01T02:29:13.359Z,19.82
2022-08-01T02:30:13.355Z,19.82
2022-08-01T02:31:13.336Z,19.77
2022-08-01T02:32:13.356Z,19.79
2022-08-01T02:33:15.780Z,19.84
2022-08-01T02:34:13.334Z,19.92
2022-08-01T02:35:13.288Z,19.92
2022-08-01T02:36:30.124Z,19.92
2022-08-01T02:37:14.295Z,19.89
2022-08-01T02:38:13.261Z,19.86
2022-08-01T02:39:13.259Z,19.86
2022-08-01T02:40:14.326Z,19.84
2022-08-01T02:41:13.256Z,19.81
2022-08-01T02:42:13.259Z,19.77
2022-08-01T02:43:13.198Z,19.74
2022-08-01T02:44:13.202Z,19.76
2022-08-01T02:45:13.215Z,19.76
2022-08-01T02:46:13.206Z,19.76
2022-08-01T02:47:13.197Z,19.76
2022-08-01T02:48:13.155Z,19.76
2022-08-01T02:49:13.213Z,19.77
2022-08-01T02:50:13.147Z,19.79
2022-08-01T02:51:13.128Z,19.79
2022-08-01T02:52:13.134Z,19.81
2022-08-01T02:53:13.095Z,19.84
2022-08-01T02:54:13.105Z,19.85
2022-08-01T02:55:13.098Z,19.86
2022-08-01T02:56:13.092Z,19.86
2022-08-01T02:57:13.976Z,19.88
2022-08-01T02:58:13.072Z,19.88
2022-08-01T02:59:13.042Z,19.92
2022-08-01T03:00:13.022Z,19.91
2022-08-01T03:01:13.064Z,19.89
2022-08-01T03:02:13.038Z,19.89
2022-08-01T03:03:13.005Z,19.89
2022-08-01T03:04:12.975Z,19.88
2022-08-01T03:05:12.959Z,19.88
2022-08-01T03:06:12.963Z,19.91
2022-08-01T03:07:12.973Z,19.88
2022-08-01T03:08:14.692Z,19.86
2022-08-01T03:09:12.939Z,19.86
2022-08-01T03:10:12.918Z,19.85
2022-08-01T03:11:12.922Z,19.88
2022-08-01T03:12:12.936Z,19.88
2022-08-01T03:13:12.893Z,19.89
2022-08-01T03:14:12.879Z,19.89
2022-08-01T03:15:12.858Z,19.89
2022-08-01T03:16:12.856Z,19.88
2022-08-01T03:17:12.878Z,19.86
2022-08-01T03:18:12.859Z,19.84
2022-08-01T03:19:12.820Z,19.81
2022-08-01T03:20:12.821Z,19.77
2022-08-01T03:21:12.801Z,19.73
2022-08-01T03:22:12.801Z,19.73
2022-08-01T03:23:12.830Z,19.71
2022-08-01T03:24:12.786Z,19.69
2022-08-01T03:25:12.746Z,19.66
2022-08-01T03:26:12.748Z,19.59
2022-08-01T03:27:12.736Z,19.56
2022-08-01T03:28:12.787Z,19.54
2022-08-01T03:29:12.711Z,19.52
2022-08-01T03:30:12.718Z,19.47
2022-08-01T03:31:12.687Z,19.44
2022-08-01T03:32:12.728Z,19.37
2022-08-01T03:33:14.423Z,19.33
2022-08-01T03:34:12.669Z,19.30
2022-08-01T03:35:12.648Z,19.29
2022-08-01T03:36:12.740Z,19.29
2022-08-01T03:37:12.658Z,19.30
2022-08-01T03:38:16.144Z,19.29
2022-08-01T03:39:12.606Z,19.26
2022-08-01T03:40:12.605Z,19.24
2022-08-01T03:41:12.610Z,19.21
2022-08-01T03:42:12.654Z,19.22
2022-08-01T03:43:12.694Z,19.22
2022-08-01T03:44:12.559Z,19.22
2022-08-01T03:45:13.385Z,19.21
2022-08-01T03:46:12.517Z,19.22
2022-08-01T03:47:12.616Z,19.22
2022-08-01T03:48:12.661Z,19.24
2022-08-01T03:49:12.541Z,19.22
2022-08-01T03:50:12.724Z,19.19
2022-08-01T03:51:12.467Z,19.18
2022-08-01T03:52:12.456Z,19.16
2022-08-01T03:53:12.481Z,19.14
2022-08-01T03:54:12.531Z,19.11
2022-08-01T03:55:12.530Z,19.07
2022-08-01T03:56:12.425Z,19.07
2022-08-01T03:57:35.667Z,19.02
2022-08-01T03:58:13.421Z,19.00
2022-08-01T03:59:12.403Z,18.99
2022-08-01T04:00:12.387Z,18.95
2022-08-01T04:01:15.872Z,18.90
2022-08-01T04:02:12.348Z,18.84
2022-08-01T04:03:12.396Z,18.78
2022-08-01T04:04:12.341Z,18.74
2022-08-01T04:05:12.327Z,18.75
2022-08-01T04:06:12.417Z,18.75
2022-08-01T04:07:12.406Z,18.71
2022-08-01T04:08:12.422Z,18.71
2022-08-01T04:09:13.757Z,18.68
2022-08-01T04:10:12.263Z,18.66
2022-08-01T04:11:12.315Z,18.66
2022-08-01T04:12:12.699Z,18.65
2022-08-01T04:13:12.266Z,18.63
2022-08-01T04:14:12.335Z,18.60
2022-08-01T04:15:12.231Z,18.62
2022-08-01T04:16:12.194Z,18.62
2022-08-01T04:17:12.218Z,18.59
2022-08-01T04:18:12.204Z,18.56
2022-08-01T04:19:12.228Z,18.56
2022-08-01T04:20:12.160Z,18.52
2022-08-01T04:21:12.276Z,18.49
2022-08-01T04:22:12.232Z,18.52
2022-08-01T04:23:12.159Z,18.52
2022-08-01T04:24:12.208Z,18.59
2022-08-01T04:25:12.189Z,18.70
2022-08-01T04:26:12.176Z,18.92
2022-08-01T04:27:12.072Z,19.14
2022-08-01T04:28:12.198Z,19.39
2022-08-01T04:29:12.078Z,19.71
2022-08-01T04:30:12.035Z,20.03
2022-08-01T04:31:13.031Z,20.32
2022-08-01T04:32:12.043Z,20.66
2022-08-01T04:33:12.054Z,20.95
2022-08-01T04:34:12.066Z,21.20
2022-08-01T04:35:57.722Z,21.40
2022-08-01T04:36:12.984Z,21.51
2022-08-01T04:37:13.160Z,21.69
2022-08-01T04:38:11.996Z,21.52
2022-08-01T04:39:11.984Z,21.29
2022-08-01T04:40:12.010Z,21.39
2022-08-01T04:41:11.926Z,21.40
2022-08-01T04:42:11.915Z,21.36
2022-08-01T04:43:13.630Z,21.32
2022-08-01T04:44:11.938Z,21.35
2022-08-01T04:45:11.873Z,21.33
2022-08-01T04:46:11.879Z,21.30
2022-08-01T04:47:11.876Z,21.20
2022-08-01T04:48:11.842Z,21.11
2022-08-01T04:49:11.890Z,21.03
2022-08-01T04:50:11.822Z,21.02
2022-08-01T04:51:11.815Z,20.96
2022-08-01T04:52:16.873Z,20.88
2022-08-01T04:53:12.808Z,20.85
2022-08-01T04:54:11.826Z,20.85
2022-08-01T04:55:11.786Z,20.88
2022-08-01T04:56:11.745Z,20.88
2022-08-01T04:57:11.775Z,20.95
2022-08-01T04:58:15.038Z,21.00
2022-08-01T04:59:15.571Z,21.07
2022-08-01T05:00:12.710Z,21.18
2022-08-01T05:01:11.803Z,21.25
2022-08-01T05:02:11.705Z,21.27
2022-08-01T05:03:11.694Z,21.32
2022-08-01T05:04:11.681Z,21.32
2022-08-01T05:05:11.654Z,21.32
2022-08-01T05:06:11.666Z,21.33
2022-08-01T05:07:11.646Z,21.40
2022-08-01T05:08:11.622Z,21.40
2022-08-01T05:09:11.656Z,21.54
2022-08-01T05:10:11.620Z,21.51
2022-08-01T05:11:11.599Z,21.61
2022-08-01T05:12:11.580Z,22.04
2022-08-01T05:13:11.582Z,22.60
2022-08-01T05:14:11.594Z,23.00
2022-08-01T05:15:15.372Z,23.59
2022-08-01T05:16:11.544Z,23.91
2022-08-01T05:17:11.544Z,24.35
2022-08-01T05:18:11.505Z,24.86
2022-08-01T05:19:11.535Z,25.26
2022-08-01T05:20:11.483Z,25.48
2022-08-01T05:21:15.923Z,25.60
2022-08-01T05:22:11.481Z,26.05
2022-08-01T05:23:20.606Z,26.34
2022-08-01T05:24:12.480Z,26.51
2022-08-01T05:25:12.251Z,26.28
2022-08-01T05:26:11.412Z,25.65
2022-08-01T05:27:12.236Z,25.28
2022-08-01T05:28:11.413Z,24.96
2022-08-01T05:29:11.447Z,24.61
2022-08-01T05:30:11.427Z,24.29
2022-08-01T05:31:11.398Z,23.99
2022-08-01T05:32:11.373Z,23.98
2022-08-01T05:33:11.337Z,23.86
2022-08-01T05:34:15.036Z,23.74
2022-08-01T05:35:11.315Z,23.44
2022-08-01T05:36:11.306Z,23.27
2022-08-01T05:37:11.301Z,23.23
2022-08-01T05:38:14.161Z,23.24
2022-08-01T05:39:11.316Z,23.23
2022-08-01T05:40:11.265Z,23.12
2022-08-01T05:41:11.249Z,23.00
2022-08-01T05:42:11.237Z,23.06
2022-08-01T05:43:11.242Z,23.05
2022-08-01T05:44:11.266Z,22.96
2022-08-01T05:45:11.232Z,23.00
2022-08-01T05:46:11.283Z,22.98
2022-08-01T05:47:11.219Z,23.02
2022-08-01T05:48:11.205Z,23.02
2022-08-01T05:49:11.247Z,22.96
2022-08-01T05:50:11.151Z,22.94
2022-08-01T05:51:11.155Z,22.85
2022-08-01T05:52:11.129Z,22.85
2022-08-01T05:53:11.138Z,22.87
2022-08-01T05:54:11.137Z,22.94
2022-08-01T05:55:11.225Z,22.91
2022-08-01T05:56:11.161Z,22.96
2022-08-01T05:57:11.152Z,22.93
2022-08-01T05:58:12.443Z,22.94
2022-08-01T05:59:11.092Z,22.87
2022-08-01T06:00:11.033Z,22.88
2022-08-01T06:01:11.165Z,22.87
2022-08-01T06:02:11.359Z,22.84
2022-08-01T06:03:11.106Z,22.78
2022-08-01T06:04:11.048Z,22.81
2022-08-01T06:05:13.217Z,22.72
2022-08-01T06:06:10.978Z,22.62
2022-08-01T06:07:10.972Z,22.54
2022-08-01T06:08:10.955Z,22.44
2022-08-01T06:09:10.990Z,22.47
2022-08-01T06:10:10.930Z,22.45
2022-08-01T06:11:10.962Z,22.43
2022-08-01T06:12:10.930Z,22.43
2022-08-01T06:13:10.914Z,22.45
2022-08-01T06:14:10.935Z,22.50
2022-08-01T06:15:10.893Z,22.51
2022-08-01T06:16:10.848Z,22.57
2022-08-01T06:17:10.862Z,22.62
2022-08-01T06:18:10.848Z,22.72
2022-08-01T06:19:10.886Z,22.73
2022-08-01T06:20:10.824Z,22.75
2022-08-01T06:21:10.827Z,22.83
2022-08-01T06:22:10.897Z,22.98
2022-08-01T06:23:31.105Z,23.08
2022-08-01T06:24:11.935Z,23.20
2022-08-01T06:25:10.763Z,23.18
2022-08-01T06:26:10.743Z,23.13
2022-08-01T06:27:21.483Z,23.10
2022-08-01T06:28:11.751Z,23.06
2022-08-01T06:29:10.910Z,22.99
2022-08-01T06:30:10.685Z,22.98
2022-08-01T06:31:10.806Z,23.00
2022-08-01T06:32:10.774Z,22.98
2022-08-01T06:33:11.750Z,22.85
2022-08-01T06:34:10.716Z,22.88
2022-08-01T06:35:10.668Z,23.06
2022-08-01T06:36:10.722Z,23.13
2022-08-01T06:37:10.635Z,23.28
2022-08-01T06:38:10.697Z,23.31
2022-08-01T06:39:10.723Z,23.43
2022-08-01T06:40:16.263Z,23.48
2022-08-01T06:41:11.701Z,23.54
2022-08-01T06:42:10.664Z,23.55
2022-08-01T06:43:10.577Z,23.62
2022-08-01T06:44:10.665Z,23.61
2022-08-01T06:45:10.552Z,23.56
2022-08-01T06:46:10.565Z,23.50
2022-08-01T06:47:10.538Z,23.48
2022-08-01T06:48:10.525Z,23.55
2022-08-01T06:49:10.761Z,23.47
2022-08-01T06:50:11.276Z,23.46
2022-08-01T06:51:10.582Z,23.50
2022-08-01T06:52:10.838Z,23.56
2022-08-01T06:53:10.451Z,23.47
2022-08-01T06:54:10.566Z,23.41
2022-08-01T06:55:10.524Z,23.59
2022-08-01T06:56:10.404Z,23.63
2022-08-01T06:57:10.503Z,23.61
2022-08-01T06:58:10.416Z,23.71
2022-08-01T06:59:10.517Z,23.78
2022-08-01T07:00:10.365Z,23.95
2022-08-01T07:01:10.466Z,23.99
2022-08-01T07:02:10.467Z,23.98
2022-08-01T07:03:10.348Z,23.84
2022-08-01T07:04:10.356Z,23.83
2022-08-01T07:05:10.412Z,23.73
2022-08-01T07:06:10.438Z,23.73
2022-08-01T07:07:10.364Z,23.86
2022-08-01T07:08:10.304Z,23.95
2022-08-01T07:09:14.073Z,23.98
2022-08-01T07:10:10.331Z,23.92
2022-08-01T07:11:10.302Z,23.98
2022-08-01T07:12:10.264Z,23.86
2022-08-01T07:13:10.235Z,23.98
2022-08-01T07:14:10.255Z,24.06
2022-08-01T07:15:10.210Z,24.20
2022-08-01T07:16:10.207Z,24.38
2022-08-01T07:17:10.213Z,24.40
2022-08-01T07:18:10.206Z,24.36
2022-08-01T07:19:10.259Z,24.39
2022-08-01T07:20:10.540Z,24.38
2022-08-01T07:21:39.087Z,24.38
2022-08-01T07:22:11.145Z,24.21
2022-08-01T07:23:10.196Z,24.05
2022-08-01T07:24:13.315Z,24.20
2022-08-01T07:25:10.127Z,24.16
2022-08-01T07:26:10.105Z,24.33
2022-08-01T07:27:23.024Z,24.68
2022-08-01T07:28:11.087Z,24.98
2022-08-01T07:29:10.088Z,25.28
2022-08-01T07:30:10.020Z,25.51
2022-08-01T07:31:10.044Z,25.63
2022-08-01T07:32:10.059Z,25.66
2022-08-01T07:33:10.022Z,25.72
2022-08-01T07:34:10.073Z,25.53
2022-08-01T07:35:10.026Z,25.33
2022-08-01T07:36:09.992Z,25.40
2022-08-01T07:37:09.976Z,25.53
2022-08-01T07:38:12.792Z,25.69
2022-08-01T07:39:10.002Z,25.88
2022-08-01T07:40:09.938Z,26.07
2022-08-01T07:41:10.013Z,26.03
2022-08-01T07:42:10.068Z,26.02
2022-08-01T07:43:09.909Z,25.83
2022-08-01T07:44:09.941Z,25.90
2022-08-01T07:45:09.890Z,25.68
2022-08-01T07:46:09.887Z,25.35
2022-08-01T07:47:09.862Z,25.23
2022-08-01T07:48:09.853Z,25.10
2022-08-01T07:49:09.933Z,25.03
2022-08-01T07:50:09.871Z,24.66
2022-08-01T07:51:09.853Z,24.39
2022-08-01T07:52:09.815Z,24.33
2022-08-01T07:53:09.807Z,24.43
2022-08-01T07:54:09.837Z,24.70
2022-08-01T07:55:09.791Z,25.11
2022-08-01T07:56:09.783Z,25.60
2022-08-01T07:57:09.749Z,26.10
2022-08-01T07:58:09.750Z,26.58
2022-08-01T07:59:09.781Z,27.10
2022-08-01T08:00:09.720Z,27.44
2022-08-01T08:01:09.716Z,27.86
2022-08-01T08:02:10.244Z,28.38
2022-08-01T08:03:09.701Z,28.85
2022-08-01T08:04:09.707Z,29.22
2022-08-01T08:05:09.723Z,30.13
2022-08-01T08:06:09.674Z,30.28
2022-08-01T08:07:10.028Z,30.19
2022-08-01T08:08:09.654Z,29.32
2022-08-01T08:09:09.618Z,28.74
2022-08-01T08:10:09.670Z,28.10
2022-08-01T08:11:09.591Z,27.32
2022-08-01T08:12:09.872Z,26.71
2022-08-01T08:13:09.580Z,26.56
2022-08-01T08:14:09.590Z,26.47
2022-08-01T08:15:09.607Z,26.51
2022-08-01T08:16:09.556Z,26.45
2022-08-01T08:17:09.552Z,26.33
2022-08-01T08:18:09.512Z,26.29
2022-08-01T08:19:09.510Z,26.45
2022-08-01T08:20:09.538Z,26.48
2022-08-01T08:21:09.491Z,26.78
2022-08-01T08:22:09.913Z,26.99
2022-08-01T08:23:09.483Z,27.37
2022-08-01T08:24:09.446Z,27.55
2022-08-01T08:25:09.468Z,28.17
2022-08-01T08:26:09.434Z,28.27
2022-08-01T08:27:09.421Z,28.19
2022-08-01T08:28:09.407Z,28.22
2022-08-01T08:29:09.421Z,28.30
2022-08-01T08:30:09.490Z,28.08
2022-08-01T08:31:25.273Z,27.93
2022-08-01T08:32:10.804Z,27.64
2022-08-01T08:33:13.716Z,27.54
2022-08-01T08:34:09.360Z,27.25
2022-08-01T08:35:09.371Z,26.89
2022-08-01T08:36:09.333Z,26.56
2022-08-01T08:37:09.515Z,26.07
2022-08-01T08:38:09.414Z,25.93
2022-08-01T08:39:09.310Z,25.75
2022-08-01T08:40:09.342Z,25.53
2022-08-01T08:41:09.364Z,25.28
2022-08-01T08:42:09.515Z,24.99
2022-08-01T08:43:09.285Z,24.84
2022-08-01T08:44:10.566Z,24.76
2022-08-01T08:45:12.076Z,24.70
2022-08-01T08:46:09.223Z,24.63
2022-08-01T08:47:09.458Z,24.40
2022-08-01T08:48:09.226Z,24.32
2022-08-01T08:49:09.338Z,24.24
2022-08-01T08:50:09.249Z,24.24
2022-08-01T08:51:09.186Z,24.10
2022-08-01T08:52:09.466Z,24.06
2022-08-01T08:53:09.140Z,24.01
2022-08-01T08:54:09.242Z,23.96
2022-08-01T08:55:09.280Z,23.87
2022-08-01T08:56:09.126Z,23.88
2022-08-01T08:57:09.102Z,23.86
2022-08-01T08:58:09.195Z,23.84
2022-08-01T08:59:09.159Z,23.76
2022-08-01T09:00:09.137Z,23.76
2022-08-01T09:01:09.180Z,23.84
2022-08-01T09:02:09.395Z,23.92
2022-08-01T09:03:09.097Z,23.99
2022-08-01T09:04:09.041Z,24.10
2022-08-01T09:05:09.058Z,24.14
2022-08-01T09:06:09.063Z,24.23
2022-08-01T09:07:08.989Z,24.32
2022-08-01T09:08:09.083Z,24.51
2022-08-01T09:09:08.975Z,24.69
2022-08-01T09:10:09.094Z,25.03
2022-08-01T09:11:09.055Z,25.18
2022-08-01T09:12:09.274Z,25.26
2022-08-01T09:13:08.933Z,25.54
2022-08-01T09:14:08.935Z,25.60
2022-08-01T09:15:08.939Z,25.62
2022-08-01T09:16:09.030Z,25.95
2022-08-01T09:17:08.970Z,26.07
2022-08-01T09:18:08.888Z,25.99
2022-08-01T09:19:08.897Z,25.91
2022-08-01T09:20:09.921Z,25.93
2022-08-01T09:21:08.860Z,25.83
2022-08-01T09:22:09.386Z,25.73
2022-08-01T09:23:08.842Z,25.69
2022-08-01T09:24:08.798Z,25.77
2022-08-01T09:25:08.962Z,25.68
2022-08-01T09:26:08.913Z,25.65
2022-08-01T09:27:08.795Z,25.83
2022-08-01T09:28:08.868Z,26.07
2022-08-01T09:29:08.795Z,26.26
2022-08-01T09:30:08.770Z,26.47
2022-08-01T09:31:08.878Z,26.60
2022-08-01T09:32:16.200Z,26.74
2022-08-01T09:33:17.912Z,27.35
2022-08-01T09:34:09.818Z,28.29
2022-08-01T09:35:08.692Z,28.89
2022-08-01T09:36:08.800Z,29.24
2022-08-01T09:37:09.067Z,29.42
2022-08-01T09:38:08.704Z,29.61
2022-08-01T09:39:08.704Z,29.93
2022-08-01T09:40:08.625Z,30.10
2022-08-01T09:41:08.671Z,30.05
2022-08-01T09:42:08.646Z,30.13
2022-08-01T09:43:08.592Z,30.03
2022-08-01T09:44:08.701Z,29.47
2022-08-01T09:45:08.593Z,29.23
2022-08-01T09:46:12.681Z,30.40
2022-08-01T09:47:08.675Z,31.03
2022-08-01T09:48:10.766Z,30.62
2022-08-01T09:49:10.914Z,30.53
2022-08-01T09:50:11.137Z,30.31
2022-08-01T09:51:09.845Z,29.44
2022-08-01T09:52:08.513Z,28.82
2022-08-01T09:53:08.510Z,28.75
2022-08-01T09:54:08.545Z,28.56
2022-08-01T09:55:08.488Z,28.79
2022-08-01T09:56:08.517Z,29.38
2022-08-01T09:57:08.718Z,29.42
2022-08-01T09:58:08.453Z,29.32
2022-08-01T09:59:08.425Z,28.98
2022-08-01T10:00:09.954Z,28.84
2022-08-01T10:01:08.510Z,28.20
2022-08-01T10:02:08.405Z,28.08
2022-08-01T10:03:10.222Z,28.02
2022-08-01T10:04:09.914Z,28.01
2022-08-01T10:05:08.949Z,27.87
2022-08-01T10:06:08.390Z,27.86
2022-08-01T10:07:08.800Z,27.73
2022-08-01T10:08:08.371Z,27.83
2022-08-01T10:09:08.357Z,27.87
2022-08-01T10:10:08.366Z,27.87
2022-08-01T10:11:08.361Z,27.55
2022-08-01T10:12:08.675Z,27.11
2022-08-01T10:13:09.878Z,26.92
2022-08-01T10:14:08.429Z,26.84
2022-08-01T10:15:08.286Z,26.70
2022-08-01T10:16:08.257Z,26.78
2022-08-01T10:17:08.501Z,26.93
2022-08-01T10:18:16.795Z,27.54
2022-08-01T10:19:14.499Z,28.48
2022-08-01T10:20:21.572Z,30.02
2022-08-01T10:21:10.921Z,30.80
2022-08-01T10:22:08.189Z,31.28
2022-08-01T10:23:08.181Z,31.73
2022-08-01T10:24:08.183Z,32.01
2022-08-01T10:25:08.160Z,32.08
2022-08-01T10:26:08.202Z,32.55
2022-08-01T10:27:09.411Z,32.49
2022-08-01T10:28:08.177Z,32.67
2022-08-01T10:29:24.305Z,32.45
2022-08-01T10:30:19.704Z,32.18
2022-08-01T10:31:12.586Z,32.34
2022-08-01T10:32:09.156Z,32.77
2022-08-01T10:33:08.101Z,32.60
2022-08-01T10:34:08.088Z,31.46
2022-08-01T10:35:15.371Z,30.55
2022-08-01T10:36:09.039Z,29.65
2022-08-01T10:37:08.603Z,28.23
2022-08-01T10:38:13.492Z,27.10
2022-08-01T10:39:09.015Z,25.35
2022-08-01T10:40:29.252Z,23.78
2022-08-01T10:41:09.228Z,22.87
2022-08-01T10:42:10.867Z,21.98
2022-08-01T10:43:08.989Z,21.36
2022-08-01T10:44:07.963Z,20.93
2022-08-01T10:45:07.947Z,20.75
2022-08-01T10:46:07.938Z,20.56
2022-08-01T10:47:09.899Z,20.28
2022-08-01T10:48:07.933Z,20.16
2022-08-01T10:49:07.961Z,20.04
2022-08-01T10:50:07.949Z,20.02
2022-08-01T10:51:17.743Z,19.92
2022-08-01T10:52:08.927Z,19.99
2022-08-01T10:53:16.280Z,20.09
2022-08-01T10:54:09.747Z,20.02
2022-08-01T10:55:07.898Z,20.09
2022-08-01T10:56:07.868Z,20.03
2022-08-01T10:57:08.244Z,20.03
2022-08-01T10:58:07.818Z,20.02
2022-08-01T10:59:11.691Z,20.02
2022-08-01T11:00:07.803Z,20.09
2022-08-01T11:01:07.834Z,20.04
2022-08-01T11:02:07.778Z,20.07
2022-08-01T11:03:07.742Z,20.06
2022-08-01T11:04:09.657Z,20.00
2022-08-01T11:05:09.579Z,19.88
2022-08-01T11:06:08.376Z,19.89
2022-08-01T11:07:10.171Z,19.89
2022-08-01T11:08:07.704Z,19.89
2022-08-01T11:09:07.682Z,20.00
2022-08-01T11:10:14.722Z,19.96
2022-08-01T11:11:08.675Z,19.91
2022-08-01T11:12:07.779Z,19.96
2022-08-01T11:13:07.638Z,20.10
2022-08-01T11:14:07.628Z,20.13
2022-08-01T11:15:07.611Z,20.19
2022-08-01T11:16:16.417Z,20.39
2022-08-01T11:17:09.025Z,20.60
2022-08-01T11:18:07.665Z,20.59
2022-08-01T11:19:07.589Z,20.66
2022-08-01T11:20:07.803Z,20.81
2022-08-01T11:21:58.250Z,20.88
2022-08-01T11:22:08.608Z,21.07
2022-08-01T11:23:07.546Z,21.06
2022-08-01T11:24:07.530Z,21.06
2022-08-01T11:25:07.495Z,21.12
2022-08-01T11:26:10.278Z,21.15
2022-08-01T11:27:07.892Z,21.15
2022-08-01T11:28:08.804Z,21.25
2022-08-01T11:29:20.032Z,21.39
2022-08-01T11:30:08.453Z,21.57
2022-08-01T11:31:07.785Z,21.67
2022-08-01T11:32:07.501Z,21.58
2022-08-01T11:33:11.420Z,21.69
2022-08-01T11:34:07.453Z,21.93
2022-08-01T11:35:07.395Z,22.00
2022-08-01T11:36:07.500Z,22.18
2022-08-01T11:37:07.404Z,22.14
2022-08-01T11:38:07.382Z,22.47
2022-08-01T11:39:13.068Z,22.75
2022-08-01T11:40:08.348Z,22.69
2022-08-01T11:41:07.437Z,22.84
2022-08-01T11:42:07.344Z,23.06
2022-08-01T11:43:07.375Z,23.06
2022-08-01T11:44:07.315Z,23.13
2022-08-01T11:45:07.284Z,23.10
2022-08-01T11:46:07.380Z,23.05
2022-08-01T11:47:09.707Z,23.36
2022-08-01T11:48:07.331Z,23.58
2022-08-01T11:49:07.273Z,23.83
2022-08-01T11:50:07.244Z,23.87
2022-08-01T11:51:07.323Z,24.23
2022-08-01T11:52:07.253Z,24.21
2022-08-01T11:53:07.264Z,24.14
2022-08-01T11:54:07.199Z,24.40
2022-08-01T11:55:10.483Z,24.26
2022-08-01T11:56:07.208Z,24.35
2022-08-01T11:57:07.563Z,24.81
2022-08-01T11:58:07.188Z,24.78
2022-08-01T11:59:07.160Z,24.69
2022-08-01T12:00:08.855Z,24.95
2022-08-01T12:01:07.124Z,25.31
2022-08-01T12:02:07.153Z,25.83
2022-08-01T12:03:07.588Z,26.03
2022-08-01T12:04:07.099Z,25.93
2022-08-01T12:05:08.446Z,25.80
2022-08-01T12:06:07.050Z,25.96
2022-08-01T12:07:07.330Z,26.43
2022-08-01T12:08:07.094Z,26.80
2022-08-01T12:09:10.474Z,26.62
2022-08-01T12:10:08.100Z,26.66
2022-08-01T12:11:07.306Z,26.40
2022-08-01T12:12:07.004Z,26.38
2022-08-01T12:13:07.016Z,25.90
2022-08-01T12:14:06.990Z,25.43
2022-08-01T12:15:06.975Z,25.18
2022-08-01T12:16:06.976Z,25.11
2022-08-01T12:17:07.304Z,25.14
2022-08-01T12:18:06.961Z,25.22
2022-08-01T12:19:06.995Z,24.91
2022-08-01T12:20:06.915Z,24.76
2022-08-01T12:21:06.916Z,24.45
2022-08-01T12:22:06.877Z,24.35
2022-08-01T12:23:06.958Z,24.30
2022-08-01T12:24:06.896Z,24.26
2022-08-01T12:25:06.885Z,24.13
2022-08-01T12:26:06.847Z,23.95
2022-08-01T12:27:07.251Z,23.95
2022-08-01T12:28:06.880Z,23.66
2022-08-01T12:29:06.812Z,23.46
2022-08-01T12:30:06.810Z,23.44
2022-08-01T12:31:06.797Z,23.56
2022-08-01T12:32:06.788Z,23.63
2022-08-01T12:33:06.818Z,23.58
2022-08-01T12:34:06.769Z,23.51
2022-08-01T12:35:06.774Z,23.46
2022-08-01T12:36:06.760Z,23.74
2022-08-01T12:37:07.138Z,23.93
2022-08-01T12:38:06.760Z,23.98
2022-08-01T12:39:06.737Z,23.96
2022-08-01T12:40:06.702Z,24.16
2022-08-01T12:41:06.724Z,24.63
2022-08-01T12:42:06.693Z,25.11
2022-08-01T12:43:06.734Z,25.26
2022-08-01T12:44:06.670Z,25.48
2022-08-01T12:45:06.654Z,25.73
2022-08-01T12:46:06.636Z,25.91
2022-08-01T12:47:06.987Z,25.91
2022-08-01T12:48:06.595Z,25.80
2022-08-01T12:49:06.596Z,26.05
2022-08-01T12:50:06.574Z,26.34
2022-08-01T12:51:06.567Z,26.55
2022-08-01T12:52:10.225Z,26.77